createdAt,value
2016-12-26T00:00:30.063Z,0
2016-12-26T00:01:40.640Z,0
2016-12-26T00:02:50.905Z,0
2016-12-26T00:04:01.835Z,0
2016-12-26T00:05:12.748Z,0
2016-12-26T00:06:23.649Z,0
2016-12-26T00:07:34.555Z,0
2016-12-26T00:08:45.192Z,0
2016-12-26T00:09:55.761Z,0
2016-12-26T00:11:06.326Z,0
2016-12-26T00:12:16.891Z,0
2016-12-26T00:13:27.797Z,0
2016-12-26T00:14:38.413Z,0
2016-12-26T00:15:48.972Z,0
2016-12-26T00:16:59.876Z,0
2016-12-26T00:18:10.781Z,0
2016-12-26T00:19:21.682Z,0
2016-12-26T00:20:32.291Z,0
2016-12-26T00:21:42.853Z,0
2016-12-26T00:22:53.418Z,0
2016-12-26T00:24:04.336Z,0
2016-12-26T00:25:15.244Z,0
2016-12-26T00:26:25.857Z,0
2016-12-26T00:27:36.415Z,0
2016-12-26T00:28:47.328Z,0
2016-12-26T00:29:57.889Z,0
2016-12-26T00:31:08.446Z,0
2016-12-26T00:32:19.552Z,0
2016-12-26T00:33:30.457Z,0
2016-12-26T00:34:41.025Z,0
2016-12-26T00:35:51.583Z,0
2016-12-26T00:37:02.484Z,0
2016-12-26T00:38:13.093Z,0
2016-12-26T00:39:23.998Z,0
2016-12-26T00:40:34.567Z,0
2016-12-26T00:41:45.125Z,0
2016-12-26T00:42:56.034Z,0
2016-12-26T00:44:06.992Z,0
2016-12-26T00:45:17.893Z,0
2016-12-26T00:46:28.454Z,0
2016-12-26T00:47:39.371Z,0
2016-12-26T00:48:49.936Z,0
2016-12-26T00:50:00.549Z,0
2016-12-26T00:51:11.115Z,0
2016-12-26T00:52:22.024Z,0
2016-12-26T00:53:32.269Z,0
2016-12-26T00:54:43.170Z,0
2016-12-26T00:55:54.127Z,0
2016-12-26T00:57:04.681Z,0
2016-12-26T00:58:15.599Z,0
2016-12-26T00:59:26.507Z,0
2016-12-26T01:00:37.416Z,0
2016-12-26T01:01:48.026Z,0
2016-12-26T01:02:58.934Z,0
2016-12-26T01:04:09.155Z,0
2016-12-26T01:05:19.721Z,0
2016-12-26T01:06:30.642Z,0
2016-12-26T01:07:41.607Z,0
2016-12-26T01:08:52.516Z,0
2016-12-26T01:10:03.422Z,0
2016-12-26T01:11:14.339Z,0
2016-12-26T01:12:25.252Z,0
2016-12-26T01:13:35.865Z,0
2016-12-26T01:14:46.434Z,0
2016-12-26T01:15:57.343Z,0
2016-12-26T01:17:07.928Z,0
2016-12-26T01:18:18.490Z,0
2016-12-26T01:19:29.455Z,0
2016-12-26T01:20:40.020Z,0
2016-12-26T01:21:50.925Z,0
2016-12-26T01:23:01.150Z,0
2016-12-26T01:24:11.707Z,0
2016-12-26T01:25:22.673Z,0
2016-12-26T01:26:33.618Z,0
2016-12-26T01:27:44.191Z,0
2016-12-26T01:28:55.096Z,0
2016-12-26T01:30:05.653Z,0
2016-12-26T01:31:16.419Z,0
2016-12-26T01:32:26.992Z,0
2016-12-26T01:33:37.905Z,0
2016-12-26T01:34:48.822Z,0
2016-12-26T01:35:59.731Z,0
2016-12-26T01:37:10.340Z,0
2016-12-26T01:38:21.249Z,0
2016-12-26T01:39:32.163Z,0
2016-12-26T01:40:42.720Z,0
2016-12-26T01:41:53.293Z,0
2016-12-26T01:43:03.910Z,0
2016-12-26T01:44:14.811Z,0
2016-12-26T01:45:25.025Z,0
2016-12-26T01:46:35.582Z,0
2016-12-26T01:47:46.175Z,0
2016-12-26T01:48:57.140Z,0
2016-12-26T01:50:07.733Z,0
2016-12-26T01:51:18.638Z,0
2016-12-26T01:52:29.200Z,0
2016-12-26T01:53:39.765Z,0
2016-12-26T01:54:50.729Z,0
2016-12-26T01:56:01.635Z,0
2016-12-26T01:57:12.540Z,0
2016-12-26T01:58:23.473Z,0
2016-12-26T01:59:34.027Z,0
2016-12-26T02:00:44.996Z,0
2016-12-26T02:01:55.905Z,0
2016-12-26T02:03:06.826Z,0
2016-12-26T02:04:17.739Z,0
2016-12-26T02:05:28.644Z,0
2016-12-26T02:06:39.598Z,0
2016-12-26T02:07:50.167Z,0
2016-12-26T02:09:01.072Z,0
2016-12-26T02:10:11.981Z,0
2016-12-26T02:11:22.546Z,0
2016-12-26T02:12:33.500Z,0
2016-12-26T02:13:44.408Z,0
2016-12-26T02:14:55.330Z,0
2016-12-26T02:16:06.235Z,0
2016-12-26T02:17:17.140Z,0
2016-12-26T02:18:27.757Z,0
2016-12-26T02:19:38.686Z,0
2016-12-26T02:20:49.604Z,0
2016-12-26T02:22:00.512Z,0
2016-12-26T02:23:11.422Z,0
2016-12-26T02:24:22.375Z,0
2016-12-26T02:25:32.940Z,0
2016-12-26T02:26:43.849Z,0
2016-12-26T02:27:54.764Z,0
2016-12-26T02:29:05.675Z,0
2016-12-26T02:30:16.328Z,0
2016-12-26T02:31:27.233Z,0
2016-12-26T02:32:37.802Z,0
2016-12-26T02:33:48.711Z,0
2016-12-26T02:34:59.276Z,0
2016-12-26T02:36:09.893Z,0
2016-12-26T02:37:20.794Z,0
2016-12-26T02:38:31.699Z,0
2016-12-26T02:39:42.609Z,0
2016-12-26T02:40:53.173Z,0
2016-12-26T02:42:03.827Z,0
2016-12-26T02:43:14.736Z,0
2016-12-26T02:44:25.648Z,0
2016-12-26T02:45:36.553Z,0
2016-12-26T02:46:47.118Z,0
2016-12-26T02:47:57.732Z,0
2016-12-26T02:49:08.661Z,0
2016-12-26T02:50:19.226Z,0
2016-12-26T02:51:30.159Z,0
2016-12-26T02:52:41.064Z,0
2016-12-26T02:53:52.024Z,0
2016-12-26T02:55:02.938Z,0
2016-12-26T02:56:13.843Z,0
2016-12-26T02:57:24.060Z,0
2016-12-26T02:58:34.965Z,0
2016-12-26T02:59:45.926Z,0
2016-12-26T03:00:56.831Z,0
2016-12-26T03:02:07.044Z,0
2016-12-26T03:03:17.609Z,0
2016-12-26T03:04:28.174Z,0
2016-12-26T03:05:38.784Z,0
2016-12-26T03:06:49.361Z,0
2016-12-26T03:07:59.930Z,0
2016-12-26T03:09:10.835Z,0
2016-12-26T03:10:21.400Z,0
2016-12-26T03:11:32.013Z,0
2016-12-26T03:12:42.923Z,0
2016-12-26T03:13:53.140Z,0
2016-12-26T03:15:04.053Z,0
2016-12-26T03:16:14.962Z,0
2016-12-26T03:17:25.919Z,0
2016-12-26T03:18:36.836Z,0
2016-12-26T03:19:47.398Z,0
2016-12-26T03:20:58.307Z,0
2016-12-26T03:22:09.220Z,0
2016-12-26T03:23:20.225Z,0
2016-12-26T03:24:31.138Z,0
2016-12-26T03:25:41.703Z,0
2016-12-26T03:26:52.620Z,0
2016-12-26T03:28:03.217Z,0
2016-12-26T03:29:14.179Z,0
2016-12-26T03:30:25.092Z,0
2016-12-26T03:31:35.993Z,0
2016-12-26T03:32:46.562Z,0
2016-12-26T03:33:57.467Z,0
2016-12-26T03:35:08.429Z,0
2016-12-26T03:36:19.058Z,0
2016-12-26T03:37:29.623Z,0
2016-12-26T03:38:40.180Z,0
2016-12-26T03:39:50.750Z,0
2016-12-26T03:41:01.018Z,0
2016-12-26T03:42:11.600Z,0
2016-12-26T03:43:22.157Z,0
2016-12-26T03:44:32.726Z,0
2016-12-26T03:45:43.300Z,0
2016-12-26T03:46:54.281Z,0
2016-12-26T03:48:04.842Z,0
2016-12-26T03:49:15.412Z,0
2016-12-26T03:50:26.316Z,0
2016-12-26T03:51:37.226Z,0
2016-12-26T03:52:47.839Z,0
2016-12-26T03:53:58.740Z,0
2016-12-26T03:55:09.654Z,0
2016-12-26T03:56:20.559Z,0
2016-12-26T03:57:31.124Z,0
2016-12-26T03:58:42.129Z,0
2016-12-26T03:59:52.695Z,0
2016-12-26T04:01:03.596Z,0
2016-12-26T04:02:14.161Z,0
2016-12-26T04:03:24.735Z,0
2016-12-26T04:04:35.015Z,0
2016-12-26T04:05:45.944Z,0
2016-12-26T04:06:56.858Z,0
2016-12-26T04:08:07.763Z,0
2016-12-26T04:09:18.332Z,0
2016-12-26T04:10:28.945Z,0
2016-12-26T04:11:39.855Z,0
2016-12-26T04:12:50.420Z,0
2016-12-26T04:14:00.985Z,0
2016-12-26T04:15:11.550Z,0
2016-12-26T04:16:22.160Z,0
2016-12-26T04:17:33.065Z,0
2016-12-26T04:18:43.666Z,0
2016-12-26T04:19:54.567Z,0
2016-12-26T04:21:05.132Z,0
2016-12-26T04:22:16.089Z,0
2016-12-26T04:23:26.995Z,0
2016-12-26T04:24:37.912Z,0
2016-12-26T04:25:48.469Z,0
2016-12-26T04:26:59.382Z,0
2016-12-26T04:28:10.348Z,0
2016-12-26T04:29:21.253Z,0
2016-12-26T04:30:31.816Z,0
2016-12-26T04:31:42.752Z,0
2016-12-26T04:32:53.693Z,0
2016-12-26T04:34:04.646Z,0
2016-12-26T04:35:15.199Z,0
2016-12-26T04:36:26.100Z,0
2016-12-26T04:37:36.318Z,0
2016-12-26T04:38:46.879Z,0
2016-12-26T04:39:57.497Z,0
2016-12-26T04:41:08.061Z,0
2016-12-26T04:42:18.967Z,0
2016-12-26T04:43:29.544Z,0
2016-12-26T04:44:40.113Z,0
2016-12-26T04:45:50.743Z,0
2016-12-26T04:47:01.340Z,0
2016-12-26T04:48:11.905Z,0
2016-12-26T04:49:22.483Z,0
2016-12-26T04:50:33.403Z,0
2016-12-26T04:51:44.360Z,0
2016-12-26T04:52:54.930Z,0
2016-12-26T04:54:05.151Z,0
2016-12-26T04:55:16.057Z,0
2016-12-26T04:56:26.966Z,0
2016-12-26T04:57:37.584Z,0
2016-12-26T04:58:48.152Z,0
2016-12-26T04:59:59.062Z,0
2016-12-26T05:01:09.615Z,0
2016-12-26T05:02:20.520Z,0
2016-12-26T05:03:31.142Z,0
2016-12-26T05:04:42.048Z,0
2016-12-26T05:05:52.947Z,0
2016-12-26T05:07:03.877Z,0
2016-12-26T05:08:14.786Z,0
2016-12-26T05:09:25.560Z,0
2016-12-26T05:10:36.469Z,0
2016-12-26T05:11:47.418Z,0
2016-12-26T05:12:57.975Z,0
2016-12-26T05:14:08.885Z,0
2016-12-26T05:15:19.498Z,0
2016-12-26T05:16:30.407Z,0
2016-12-26T05:17:41.320Z,0
2016-12-26T05:18:52.230Z,0
2016-12-26T05:20:02.815Z,0
2016-12-26T05:21:13.776Z,0
2016-12-26T05:22:24.365Z,0
2016-12-26T05:23:34.926Z,0
2016-12-26T05:24:45.155Z,0
2016-12-26T05:25:55.717Z,0
2016-12-26T05:27:06.678Z,0
2016-12-26T05:28:17.583Z,0
2016-12-26T05:29:28.149Z,0
2016-12-26T05:30:39.066Z,0
2016-12-26T05:31:49.963Z,0
2016-12-26T05:33:00.576Z,0
2016-12-26T05:34:11.481Z,0
2016-12-26T05:35:22.035Z,0
2016-12-26T05:36:32.604Z,0
2016-12-26T05:37:43.185Z,0
2016-12-26T05:38:54.138Z,0
2016-12-26T05:40:05.052Z,0
2016-12-26T05:41:15.953Z,0
2016-12-26T05:42:26.518Z,0
2016-12-26T05:43:37.428Z,0
2016-12-26T05:44:48.033Z,0
2016-12-26T05:45:58.938Z,0
2016-12-26T05:47:09.851Z,0
2016-12-26T05:48:20.404Z,0
2016-12-26T05:49:30.966Z,0
2016-12-26T05:50:41.583Z,0
2016-12-26T05:51:52.148Z,0
2016-12-26T05:53:03.061Z,0
2016-12-26T05:54:13.966Z,0
2016-12-26T05:55:24.888Z,0
2016-12-26T05:56:35.845Z,0
2016-12-26T05:57:46.442Z,0
2016-12-26T05:58:57.031Z,0
2016-12-26T06:00:07.584Z,0
2016-12-26T06:01:18.530Z,0
2016-12-26T06:02:29.147Z,0
2016-12-26T06:03:39.704Z,0
2016-12-26T06:04:50.613Z,0
2016-12-26T06:06:01.518Z,0
2016-12-26T06:07:12.083Z,0
2016-12-26T06:08:23.037Z,0
2016-12-26T06:09:33.598Z,0
2016-12-26T06:10:44.503Z,0
2016-12-26T06:11:55.412Z,0
2016-12-26T06:13:06.321Z,0
2016-12-26T06:14:16.927Z,0
2016-12-26T06:15:27.496Z,0
2016-12-26T06:16:38.409Z,0
2016-12-26T06:17:49.002Z,0
2016-12-26T06:18:59.568Z,0
2016-12-26T06:20:10.181Z,0
2016-12-26T06:21:21.098Z,0
2016-12-26T06:22:32.003Z,0
2016-12-26T06:23:42.564Z,0
2016-12-26T06:24:53.481Z,0
2016-12-26T06:26:04.442Z,0
2016-12-26T06:27:15.356Z,0
2016-12-26T06:28:26.265Z,0
2016-12-26T06:29:36.830Z,0
2016-12-26T06:30:47.740Z,0
2016-12-26T06:31:58.692Z,0
2016-12-26T06:33:09.601Z,0
2016-12-26T06:34:20.159Z,0
2016-12-26T06:35:31.100Z,0
2016-12-26T06:36:41.669Z,0
2016-12-26T06:37:52.778Z,0
2016-12-26T06:39:03.339Z,0
2016-12-26T06:40:13.905Z,0
2016-12-26T06:41:24.810Z,0
2016-12-26T06:42:35.723Z,0
2016-12-26T06:43:46.680Z,0
2016-12-26T06:44:57.594Z,0
2016-12-26T06:46:08.165Z,0
2016-12-26T06:47:18.391Z,0
2016-12-26T06:48:28.958Z,0
2016-12-26T06:49:40.146Z,0
2016-12-26T06:50:51.055Z,0
2016-12-26T06:52:01.616Z,0
2016-12-26T06:53:12.522Z,0
2016-12-26T06:54:23.435Z,0
2016-12-26T06:55:34.396Z,0
2016-12-26T06:56:44.961Z,0
2016-12-26T06:57:55.522Z,0
2016-12-26T06:59:06.087Z,0
2016-12-26T07:00:16.992Z,0
2016-12-26T07:01:27.953Z,0
2016-12-26T07:02:38.859Z,0
2016-12-26T07:03:49.428Z,0
2016-12-26T07:05:00.345Z,0
2016-12-26T07:06:11.254Z,0
2016-12-26T07:07:21.864Z,0
2016-12-26T07:08:32.777Z,0
2016-12-26T07:09:43.689Z,0
2016-12-26T07:10:54.255Z,0
2016-12-26T07:12:04.816Z,0
2016-12-26T07:13:15.133Z,0
2016-12-26T07:14:25.699Z,0
2016-12-26T07:15:36.264Z,0
2016-12-26T07:16:46.825Z,0
2016-12-26T07:17:57.394Z,0
2016-12-26T07:19:08.395Z,0
2016-12-26T07:20:18.964Z,0
2016-12-26T07:21:30.126Z,0
2016-12-26T07:22:42.803Z,0
2016-12-26T07:23:54.120Z,0
2016-12-26T07:25:05.665Z,0
2016-12-26T07:26:16.026Z,0
2016-12-26T07:27:26.932Z,0
2016-12-26T07:28:37.840Z,0
2016-12-26T07:29:48.401Z,0
2016-12-26T07:30:59.019Z,0
2016-12-26T07:32:09.592Z,0
2016-12-26T07:33:20.501Z,0
2016-12-26T07:34:31.078Z,0
2016-12-26T07:35:41.639Z,0
2016-12-26T07:36:52.596Z,0
2016-12-26T07:38:03.162Z,0
2016-12-26T07:39:14.075Z,0
2016-12-26T07:40:24.452Z,0
2016-12-26T07:41:35.369Z,0
2016-12-26T07:42:46.014Z,0
2016-12-26T07:43:56.599Z,0
2016-12-26T07:45:07.497Z,0
2016-12-26T07:46:18.406Z,0
2016-12-26T07:47:28.975Z,0
2016-12-26T07:48:39.589Z,5
2016-12-26T07:49:50.149Z,0
2016-12-26T07:51:01.054Z,0
2016-12-26T07:52:11.967Z,0
2016-12-26T07:53:22.885Z,0
2016-12-26T07:54:33.498Z,5
2016-12-26T07:55:44.403Z,0
2016-12-26T07:56:55.308Z,5
2016-12-26T07:58:05.877Z,5
2016-12-26T07:59:16.443Z,5
2016-12-26T08:00:27.404Z,5
2016-12-26T08:01:38.001Z,5
2016-12-26T08:02:48.558Z,5
2016-12-26T08:03:59.119Z,5
2016-12-26T08:05:10.024Z,5
2016-12-26T08:06:20.977Z,5
2016-12-26T08:07:31.914Z,10
2016-12-26T08:08:42.820Z,5
2016-12-26T08:09:53.725Z,10
2016-12-26T08:11:04.298Z,10
2016-12-26T08:12:15.263Z,10
2016-12-26T08:13:26.181Z,10
2016-12-26T08:14:36.746Z,10
2016-12-26T08:15:47.663Z,5
2016-12-26T08:16:58.220Z,5
2016-12-26T08:18:09.181Z,10
2016-12-26T08:19:20.090Z,10
2016-12-26T08:20:31.003Z,5
2016-12-26T08:21:41.566Z,10
2016-12-26T08:22:52.478Z,10
2016-12-26T08:24:03.095Z,10
2016-12-26T08:25:13.668Z,10
2016-12-26T08:26:24.236Z,10
2016-12-26T08:27:34.802Z,5
2016-12-26T08:28:45.716Z,5
2016-12-26T08:29:56.332Z,5
2016-12-26T08:31:06.894Z,5
2016-12-26T08:32:17.455Z,5
2016-12-26T08:33:28.368Z,5
2016-12-26T08:34:38.977Z,5
2016-12-26T08:35:49.947Z,0
2016-12-26T08:37:00.164Z,5
2016-12-26T08:38:11.073Z,5
2016-12-26T08:39:21.978Z,5
2016-12-26T08:40:32.543Z,5
2016-12-26T08:41:43.156Z,5
2016-12-26T08:42:54.062Z,5
2016-12-26T08:44:04.975Z,5
2016-12-26T08:45:15.880Z,10
2016-12-26T08:46:26.449Z,10
2016-12-26T08:47:37.402Z,10
2016-12-26T08:48:48.304Z,15
2016-12-26T08:49:59.217Z,5
2016-12-26T08:51:10.122Z,15
2016-12-26T08:52:20.691Z,25
2016-12-26T08:53:31.652Z,40
2016-12-26T08:54:42.213Z,25
2016-12-26T08:55:53.123Z,30
2016-12-26T08:57:04.038Z,30
2016-12-26T08:58:14.949Z,20
2016-12-26T08:59:25.922Z,15
2016-12-26T09:00:36.839Z,10
2016-12-26T09:01:47.752Z,15
2016-12-26T09:02:58.662Z,20
2016-12-26T09:04:09.263Z,15
2016-12-26T09:05:19.968Z,20
2016-12-26T09:06:30.881Z,20
2016-12-26T09:07:41.794Z,20
2016-12-26T09:08:52.700Z,10
2016-12-26T09:10:03.617Z,15
2016-12-26T09:11:14.338Z,15
2016-12-26T09:12:25.247Z,15
2016-12-26T09:13:36.160Z,20
2016-12-26T09:14:47.085Z,20
2016-12-26T09:15:57.987Z,20
2016-12-26T09:17:08.948Z,25
2016-12-26T09:18:19.853Z,25
2016-12-26T09:19:30.774Z,25
2016-12-26T09:20:41.335Z,20
2016-12-26T09:21:51.901Z,25
2016-12-26T09:23:02.854Z,25
2016-12-26T09:24:13.763Z,30
2016-12-26T09:25:24.672Z,25
2016-12-26T09:26:35.593Z,30
2016-12-26T09:27:46.156Z,20
2016-12-26T09:28:56.827Z,25
2016-12-26T09:30:07.745Z,30
2016-12-26T09:31:18.314Z,25
2016-12-26T09:32:28.919Z,40
2016-12-26T09:33:39.820Z,35
2016-12-26T09:34:50.777Z,35
2016-12-26T09:36:01.335Z,35
2016-12-26T09:37:12.252Z,20
2016-12-26T09:38:23.189Z,15
2016-12-26T09:39:34.094Z,25
2016-12-26T09:40:44.711Z,20
2016-12-26T09:41:55.624Z,15
2016-12-26T09:43:06.534Z,5
2016-12-26T09:44:17.103Z,0
2016-12-26T09:45:27.676Z,0
2016-12-26T09:46:38.637Z,0
2016-12-26T09:47:49.207Z,5
2016-12-26T09:49:00.115Z,0
2016-12-26T09:50:11.020Z,5
2016-12-26T09:51:21.590Z,5
2016-12-26T09:52:32.239Z,10
2016-12-26T09:53:43.148Z,15
2016-12-26T09:54:53.717Z,15
2016-12-26T09:56:04.295Z,15
2016-12-26T09:57:15.200Z,15
2016-12-26T09:58:26.165Z,20
2016-12-26T09:59:37.087Z,20
2016-12-26T10:00:48.019Z,20
2016-12-26T10:01:58.581Z,25
2016-12-26T10:03:09.138Z,25
2016-12-26T10:04:19.755Z,20
2016-12-26T10:05:30.328Z,20
2016-12-26T10:06:40.901Z,15
2016-12-26T10:07:51.802Z,15
2016-12-26T10:09:02.704Z,10
2016-12-26T10:10:13.313Z,15
2016-12-26T10:11:24.222Z,10
2016-12-26T10:12:35.155Z,10
2016-12-26T10:13:45.716Z,10
2016-12-26T10:14:56.645Z,10
2016-12-26T10:16:07.265Z,15
2016-12-26T10:17:17.828Z,35
2016-12-26T10:18:28.385Z,35
2016-12-26T10:19:39.301Z,30
2016-12-26T10:20:49.860Z,25
2016-12-26T10:22:00.825Z,20
2016-12-26T10:23:11.734Z,25
2016-12-26T10:24:22.656Z,30
2016-12-26T10:25:33.564Z,35
2016-12-26T10:26:44.477Z,35
2016-12-26T10:27:55.098Z,35
2016-12-26T10:29:05.672Z,40
2016-12-26T10:30:16.241Z,40
2016-12-26T10:31:27.146Z,35
2016-12-26T10:32:37.707Z,35
2016-12-26T10:33:48.344Z,35
2016-12-26T10:34:58.914Z,30
2016-12-26T10:36:09.835Z,30
2016-12-26T10:37:20.748Z,35
2016-12-26T10:38:31.305Z,30
2016-12-26T10:39:42.262Z,25
2016-12-26T10:40:52.815Z,25
2016-12-26T10:42:03.724Z,30
2016-12-26T10:43:14.630Z,25
2016-12-26T10:44:25.583Z,20
2016-12-26T10:45:36.192Z,25
2016-12-26T10:46:46.425Z,25
2016-12-26T10:47:57.331Z,25
2016-12-26T10:49:07.895Z,25
2016-12-26T10:50:18.805Z,25
2016-12-26T10:51:29.762Z,30
2016-12-26T10:52:40.703Z,30
2016-12-26T10:53:51.608Z,35
2016-12-26T10:55:02.514Z,35
2016-12-26T10:56:13.431Z,35
2016-12-26T10:57:24.388Z,35
2016-12-26T10:58:34.945Z,30
2016-12-26T10:59:45.851Z,25
2016-12-26T11:00:56.764Z,25
2016-12-26T11:02:07.685Z,25
2016-12-26T11:03:18.294Z,20
2016-12-26T11:04:28.891Z,15
2016-12-26T11:05:39.844Z,15
2016-12-26T11:06:50.410Z,15
2016-12-26T11:08:00.983Z,15
2016-12-26T11:09:11.944Z,15
2016-12-26T11:10:22.505Z,20
2016-12-26T11:11:33.066Z,20
2016-12-26T11:12:43.643Z,20
2016-12-26T11:13:54.581Z,20
2016-12-26T11:15:05.530Z,25
2016-12-26T11:16:16.463Z,25
2016-12-26T11:17:27.372Z,25
2016-12-26T11:18:37.945Z,25
2016-12-26T11:19:48.506Z,25
2016-12-26T11:20:59.112Z,25
2016-12-26T11:22:10.017Z,25
2016-12-26T11:23:20.934Z,25
2016-12-26T11:24:30.827Z,25
2016-12-26T11:25:41.733Z,25
2016-12-26T11:26:52.349Z,25
2016-12-26T11:28:03.255Z,25
2016-12-26T11:29:13.824Z,30
2016-12-26T11:30:24.741Z,40
2016-12-26T11:31:35.650Z,35
2016-12-26T11:32:46.322Z,35
2016-12-26T11:33:57.269Z,35
2016-12-26T11:35:08.218Z,35
2016-12-26T11:36:19.131Z,30
2016-12-26T11:37:29.697Z,35
2016-12-26T11:38:40.309Z,30
2016-12-26T11:39:50.891Z,25
2016-12-26T11:41:01.792Z,25
2016-12-26T11:42:12.349Z,25
2016-12-26T11:43:23.254Z,25
2016-12-26T11:44:34.227Z,30
2016-12-26T11:45:45.149Z,35
2016-12-26T11:46:56.058Z,35
2016-12-26T11:48:06.967Z,35
2016-12-26T11:49:17.536Z,40
2016-12-26T11:50:28.497Z,40
2016-12-26T11:51:39.078Z,35
2016-12-26T11:52:49.992Z,40
2016-12-26T11:54:00.897Z,30
2016-12-26T11:55:11.470Z,30
2016-12-26T11:56:22.081Z,35
2016-12-26T11:57:32.308Z,45
2016-12-26T11:58:42.869Z,50
2016-12-26T11:59:53.435Z,45
2016-12-26T12:01:04.016Z,40
2016-12-26T12:02:14.629Z,30
2016-12-26T12:03:25.538Z,30
2016-12-26T12:04:36.111Z,40
2016-12-26T12:05:47.017Z,45
2016-12-26T12:06:57.930Z,60
2016-12-26T12:08:08.891Z,105
2016-12-26T12:09:19.460Z,75
2016-12-26T12:10:30.025Z,60
2016-12-26T12:11:40.946Z,60
2016-12-26T12:12:51.508Z,35
2016-12-26T12:14:02.121Z,35
2016-12-26T12:15:12.678Z,35
2016-12-26T12:16:23.583Z,25
2016-12-26T12:17:34.497Z,30
2016-12-26T12:18:45.066Z,35
2016-12-26T12:19:55.711Z,45
2016-12-26T12:21:06.272Z,40
2016-12-26T12:22:17.185Z,35
2016-12-26T12:23:28.091Z,35
2016-12-26T12:24:38.652Z,45
2016-12-26T12:25:49.265Z,35
2016-12-26T12:27:00.178Z,30
2016-12-26T12:28:11.091Z,20
2016-12-26T12:29:22.004Z,30
2016-12-26T12:30:32.914Z,40
2016-12-26T12:31:43.175Z,45
2016-12-26T12:32:53.396Z,35
2016-12-26T12:34:03.961Z,40
2016-12-26T12:35:15.199Z,30
2016-12-26T12:36:26.524Z,35
2016-12-26T12:37:37.897Z,35
2016-12-26T12:38:48.891Z,40
2016-12-26T12:39:59.799Z,40
2016-12-26T12:41:10.372Z,35
2016-12-26T12:42:21.282Z,50
2016-12-26T12:43:31.882Z,35
2016-12-26T12:44:42.797Z,40
2016-12-26T12:45:53.709Z,30
2016-12-26T12:47:04.282Z,35
2016-12-26T12:48:15.187Z,25
2016-12-26T12:49:25.809Z,20
2016-12-26T12:50:36.402Z,20
2016-12-26T12:51:47.303Z,20
2016-12-26T12:52:57.516Z,30
2016-12-26T12:54:07.737Z,30
2016-12-26T12:55:18.347Z,30
2016-12-26T12:56:28.920Z,30
2016-12-26T12:57:39.825Z,25
2016-12-26T12:58:50.738Z,35
2016-12-26T13:00:01.303Z,25
2016-12-26T13:01:12.256Z,30
2016-12-26T13:02:23.161Z,25
2016-12-26T13:03:33.727Z,35
2016-12-26T13:04:44.644Z,30
2016-12-26T13:05:55.549Z,30
2016-12-26T13:07:06.150Z,25
2016-12-26T13:08:17.095Z,10
2016-12-26T13:09:28.016Z,20
2016-12-26T13:10:38.578Z,15
2016-12-26T13:11:49.143Z,10
2016-12-26T13:13:00.092Z,5
2016-12-26T13:14:11.006Z,15
2016-12-26T13:15:21.942Z,15
2016-12-26T13:16:32.515Z,10
2016-12-26T13:17:43.421Z,20
2016-12-26T13:18:54.029Z,15
2016-12-26T13:20:04.939Z,15
2016-12-26T13:21:15.532Z,15
2016-12-26T13:22:26.441Z,15
2016-12-26T13:23:36.994Z,10
2016-12-26T13:24:47.956Z,5
2016-12-26T13:25:58.517Z,5
2016-12-26T13:27:09.426Z,5
2016-12-26T13:28:20.331Z,5
2016-12-26T13:29:31.232Z,20
2016-12-26T13:30:41.850Z,25
2016-12-26T13:31:52.403Z,20
2016-12-26T13:33:03.316Z,15
2016-12-26T13:34:13.881Z,15
2016-12-26T13:35:24.447Z,10
2016-12-26T13:36:35.403Z,25
2016-12-26T13:37:45.965Z,25
2016-12-26T13:38:56.870Z,15
2016-12-26T13:40:07.783Z,15
2016-12-26T13:41:18.344Z,15
2016-12-26T13:42:28.957Z,15
2016-12-26T13:43:39.867Z,15
2016-12-26T13:44:50.800Z,15
2016-12-26T13:46:01.365Z,15
2016-12-26T13:47:12.270Z,10
2016-12-26T13:48:23.223Z,10
2016-12-26T13:49:33.792Z,15
2016-12-26T13:50:44.698Z,20
2016-12-26T13:51:55.255Z,25
2016-12-26T13:53:06.160Z,30
2016-12-26T13:54:17.125Z,20
2016-12-26T13:55:28.038Z,15
2016-12-26T13:56:38.596Z,15
2016-12-26T13:57:49.501Z,20
2016-12-26T13:59:00.418Z,20
2016-12-26T14:00:10.689Z,20
2016-12-26T14:01:21.249Z,25
2016-12-26T14:02:32.162Z,20
2016-12-26T14:03:43.066Z,15
2016-12-26T14:04:53.628Z,15
2016-12-26T14:06:04.605Z,15
2016-12-26T14:07:15.166Z,15
2016-12-26T14:08:25.731Z,20
2016-12-26T14:09:36.321Z,25
2016-12-26T14:10:47.226Z,25
2016-12-26T14:11:58.235Z,20
2016-12-26T14:13:08.804Z,15
2016-12-26T14:14:19.717Z,20
2016-12-26T14:15:30.274Z,20
2016-12-26T14:16:41.180Z,10
2016-12-26T14:17:52.148Z,5
2016-12-26T14:19:03.053Z,15
2016-12-26T14:20:13.954Z,20
2016-12-26T14:21:24.519Z,15
2016-12-26T14:22:35.447Z,10
2016-12-26T14:23:46.401Z,10
2016-12-26T14:24:56.974Z,10
2016-12-26T14:26:07.551Z,10
2016-12-26T14:27:18.456Z,10
2016-12-26T14:28:29.361Z,10
2016-12-26T14:29:40.074Z,10
2016-12-26T14:30:50.289Z,10
2016-12-26T14:32:00.860Z,10
2016-12-26T14:33:11.769Z,5
2016-12-26T14:34:22.678Z,5
2016-12-26T14:35:33.635Z,5
2016-12-26T14:36:44.196Z,5
2016-12-26T14:37:54.781Z,5
2016-12-26T14:39:05.683Z,5
2016-12-26T14:40:16.255Z,5
2016-12-26T14:41:27.220Z,5
2016-12-26T14:42:37.845Z,5
2016-12-26T14:43:48.406Z,5
2016-12-26T14:44:58.619Z,5
2016-12-26T14:46:09.184Z,5
2016-12-26T14:47:20.142Z,5
2016-12-26T14:48:30.702Z,5
2016-12-26T14:49:41.607Z,5
2016-12-26T14:50:52.204Z,5
2016-12-26T14:52:03.113Z,5
2016-12-26T14:53:13.874Z,5
2016-12-26T14:54:24.443Z,0
2016-12-26T14:55:35.348Z,0
2016-12-26T14:56:46.253Z,0
2016-12-26T14:57:56.814Z,0
2016-12-26T14:59:07.438Z,0
2016-12-26T15:00:18.003Z,0
2016-12-26T15:01:28.905Z,0
2016-12-26T15:02:39.802Z,0
2016-12-26T15:03:50.366Z,0
2016-12-26T15:05:00.988Z,0
2016-12-26T15:06:11.549Z,0
2016-12-26T15:07:22.458Z,0
2016-12-26T15:08:33.023Z,0
2016-12-26T15:09:43.928Z,0
2016-12-26T15:10:54.540Z,0
2016-12-26T15:12:05.095Z,0
2016-12-26T15:13:15.668Z,0
2016-12-26T15:14:26.229Z,0
2016-12-26T15:15:37.162Z,0
2016-12-26T15:16:47.783Z,0
2016-12-26T15:17:58.697Z,0
2016-12-26T15:19:09.606Z,0
2016-12-26T15:20:20.194Z,0
2016-12-26T15:21:30.756Z,0
2016-12-26T15:22:41.713Z,0
2016-12-26T15:23:52.622Z,0
2016-12-26T15:25:03.559Z,0
2016-12-26T15:26:14.132Z,0
2016-12-26T15:27:24.701Z,0
2016-12-26T15:28:35.706Z,0
2016-12-26T15:29:46.616Z,0
2016-12-26T15:30:57.517Z,0
2016-12-26T15:32:08.082Z,0
2016-12-26T15:33:18.995Z,0
2016-12-26T15:34:29.704Z,0
2016-12-26T15:35:40.273Z,0
2016-12-26T15:36:50.838Z,0
2016-12-26T15:38:01.404Z,0
2016-12-26T15:39:11.968Z,0
2016-12-26T15:40:22.582Z,0
2016-12-26T15:41:33.148Z,0
2016-12-26T15:42:44.068Z,0
2016-12-26T15:43:54.285Z,0
2016-12-26T15:45:05.206Z,0
2016-12-26T15:46:16.311Z,0
2016-12-26T15:47:26.868Z,0
2016-12-26T15:48:37.441Z,0
2016-12-26T15:49:48.346Z,0
2016-12-26T15:50:58.903Z,0
2016-12-26T15:52:09.848Z,0
2016-12-26T15:53:20.414Z,0
2016-12-26T15:54:30.975Z,0
2016-12-26T15:55:41.536Z,0
2016-12-26T15:56:52.101Z,0
2016-12-26T15:58:02.710Z,0
2016-12-26T15:59:13.630Z,0
2016-12-26T16:00:24.544Z,0
2016-12-26T16:01:35.122Z,0
2016-12-26T16:02:45.682Z,0
2016-12-26T16:03:56.344Z,0
2016-12-26T16:05:07.260Z,0
2016-12-26T16:06:18.174Z,0
2016-12-26T16:07:29.079Z,0
2016-12-26T16:08:39.988Z,0
2016-12-26T16:09:50.601Z,0
2016-12-26T16:11:01.166Z,0
2016-12-26T16:12:11.739Z,0
2016-12-26T16:13:22.644Z,0
2016-12-26T16:14:33.197Z,0
2016-12-26T16:15:44.150Z,0
2016-12-26T16:16:55.063Z,0
2016-12-26T16:18:05.292Z,0
2016-12-26T16:19:16.206Z,0
2016-12-26T16:20:26.766Z,0
2016-12-26T16:21:37.372Z,0
2016-12-26T16:22:47.933Z,0
2016-12-26T16:23:58.834Z,0
2016-12-26T16:25:09.399Z,0
2016-12-26T16:26:19.972Z,0
2016-12-26T16:27:30.589Z,0
2016-12-26T16:28:41.146Z,0
2016-12-26T16:29:52.087Z,0
2016-12-26T16:31:02.657Z,0
2016-12-26T16:32:13.562Z,0
2016-12-26T16:33:24.515Z,0
2016-12-26T16:34:35.096Z,0
2016-12-26T16:35:46.009Z,0
2016-12-26T16:36:56.915Z,0
2016-12-26T16:38:07.488Z,0
2016-12-26T16:39:18.137Z,0
2016-12-26T16:40:28.698Z,0
2016-12-26T16:41:39.600Z,0
2016-12-26T16:42:50.169Z,0
2016-12-26T16:44:01.078Z,0
2016-12-26T16:45:11.688Z,0
2016-12-26T16:46:22.601Z,0
2016-12-26T16:47:33.510Z,0
2016-12-26T16:48:44.443Z,0
2016-12-26T16:49:55.360Z,0
2016-12-26T16:51:06.310Z,0
2016-12-26T16:52:17.225Z,0
2016-12-26T16:53:28.136Z,0
2016-12-26T16:54:39.046Z,0
2016-12-26T16:55:49.611Z,0
2016-12-26T16:57:00.564Z,0
2016-12-26T16:58:11.478Z,0
2016-12-26T16:59:22.403Z,0
2016-12-26T17:00:33.316Z,0
2016-12-26T17:01:43.873Z,0
2016-12-26T17:02:54.835Z,0
2016-12-26T17:04:05.744Z,0
2016-12-26T17:05:16.653Z,0
2016-12-26T17:06:27.558Z,0
2016-12-26T17:07:38.120Z,0
2016-12-26T17:08:49.077Z,0
2016-12-26T17:09:59.642Z,0
2016-12-26T17:11:10.543Z,0
2016-12-26T17:12:21.108Z,0
2016-12-26T17:13:31.678Z,0